createdAt,value
2019-01-21T00:01:39.497Z,15.83
2019-01-21T00:04:08.969Z,15.67
2019-01-21T00:06:38.410Z,15.47
2019-01-21T00:09:09.105Z,16.43
2019-01-21T00:11:38.484Z,14.90
2019-01-21T00:14:08.011Z,16.63
2019-01-21T00:16:37.522Z,17.07
2019-01-21T00:19:06.984Z,16.57
2019-01-21T00:21:36.500Z,16.93
2019-01-21T00:24:06.038Z,18.30
2019-01-21T00:26:35.381Z,18.03
2019-01-21T00:29:04.759Z,18.33
2019-01-21T00:31:34.103Z,17.63
2019-01-21T00:34:03.467Z,17.53
2019-01-21T00:36:32.815Z,17.57
2019-01-21T00:39:02.213Z,16.67
2019-01-21T00:41:31.634Z,18.00
2019-01-21T00:44:01.039Z,18.00
2019-01-21T00:46:30.416Z,18.00
2019-01-21T00:48:59.781Z,16.43
2019-01-21T00:51:29.190Z,18.40
2019-01-21T00:53:58.592Z,17.87
2019-01-21T00:56:27.989Z,19.13
2019-01-21T00:58:57.324Z,18.43
2019-01-21T01:01:26.800Z,18.03
2019-01-21T01:03:56.230Z,18.23
2019-01-21T01:06:25.603Z,17.87
2019-01-21T01:08:54.962Z,19.00
2019-01-21T01:11:24.344Z,19.33
2019-01-21T01:13:53.708Z,16.97
2019-01-21T01:16:23.105Z,17.87
2019-01-21T01:18:52.508Z,17.27
2019-01-21T01:21:21.884Z,17.80
2019-01-21T01:23:51.254Z,17.10
2019-01-21T01:26:20.633Z,17.77
2019-01-21T01:28:50.031Z,17.57
2019-01-21T01:31:19.476Z,18.03
2019-01-21T01:33:48.904Z,18.83
2019-01-21T01:36:18.316Z,18.50
2019-01-21T01:38:47.655Z,17.80
2019-01-21T01:41:17.167Z,17.27
2019-01-21T01:43:46.727Z,18.87
2019-01-21T01:46:16.232Z,18.67
2019-01-21T01:48:46.608Z,18.13
2019-01-21T01:51:16.909Z,17.60
2019-01-21T01:53:46.538Z,18.13
2019-01-21T01:56:16.020Z,17.87
2019-01-21T01:58:45.535Z,17.33
2019-01-21T02:01:14.972Z,18.13
2019-01-21T02:03:44.785Z,16.30
2019-01-21T02:06:14.217Z,16.83
2019-01-21T02:08:43.579Z,16.63
2019-01-21T02:11:13.017Z,16.07
2019-01-21T02:13:42.451Z,17.63
2019-01-21T02:16:12.067Z,19.70
2019-01-21T02:18:41.556Z,20.73
2019-01-21T02:21:10.974Z,19.40
2019-01-21T02:23:40.659Z,20.23
2019-01-21T02:26:19.518Z,18.73
2019-01-21T02:29:03.475Z,18.70
2019-01-21T02:32:25.767Z,17.83
2019-01-21T02:35:32.296Z,16.30
2019-01-21T02:38:26.542Z,18.47
2019-01-21T02:41:39.887Z,18.43
2019-01-21T02:44:44.434Z,17.77
2019-01-21T02:47:28.826Z,19.00
2019-01-21T02:50:13.273Z,19.87
2019-01-21T02:53:12.962Z,18.20
2019-01-21T02:56:27.907Z,17.37
2019-01-21T02:59:50.059Z,17.83
2019-01-21T03:03:15.301Z,16.73
2019-01-21T03:06:35.206Z,17.23
2019-01-21T03:09:29.913Z,17.47
2019-01-21T03:12:36.173Z,19.03
2019-01-21T03:15:28.152Z,17.97
2019-01-21T03:18:32.857Z,18.53
2019-01-21T03:21:51.159Z,19.03
2019-01-21T03:25:28.579Z,18.67
2019-01-21T03:28:42.279Z,17.47
2019-01-21T03:32:03.162Z,17.33
2019-01-21T03:35:16.588Z,16.53
2019-01-21T03:38:25.673Z,18.33
2019-01-21T03:41:26.002Z,16.83
2019-01-21T03:44:42.498Z,17.70
2019-01-21T03:47:30.034Z,15.77
2019-01-21T03:50:48.715Z,14.63
2019-01-21T03:53:39.891Z,16.20
2019-01-21T03:56:19.801Z,15.77
2019-01-21T03:59:26.930Z,15.67
2019-01-21T04:02:21.742Z,15.97
2019-01-21T04:05:22.581Z,15.43
2019-01-21T04:08:15.875Z,16.43
2019-01-21T04:11:18.309Z,15.33
2019-01-21T04:14:13.980Z,14.20
2019-01-21T04:16:55.851Z,15.17
2019-01-21T04:19:53.144Z,14.73
2019-01-21T04:23:24.762Z,15.83
2019-01-21T04:26:53.181Z,14.80
2019-01-21T04:29:55.850Z,14.80
2019-01-21T04:32:35.654Z,15.90
2019-01-21T04:35:43.021Z,16.23
2019-01-21T04:38:49.732Z,15.37
2019-01-21T04:41:45.233Z,14.97
2019-01-21T04:45:05.296Z,15.83
2019-01-21T04:48:16.606Z,16.70
2019-01-21T04:51:09.499Z,15.63
2019-01-21T04:54:35.028Z,15.13
2019-01-21T04:57:39.674Z,15.07
2019-01-21T05:00:20.602Z,14.17
2019-01-21T05:03:36.364Z,16.77
2019-01-21T05:06:44.786Z,15.77
2019-01-21T05:09:44.174Z,14.83
2019-01-21T05:12:39.360Z,15.80
2019-01-21T05:15:42.681Z,14.67
2019-01-21T05:19:02.191Z,13.87
2019-01-21T05:22:14.778Z,14.43
2019-01-21T05:25:26.209Z,15.83
2019-01-21T05:28:48.493Z,15.47
2019-01-21T05:31:50.125Z,13.63
2019-01-21T05:35:10.526Z,16.10
2019-01-21T05:38:24.236Z,13.90
2019-01-21T05:41:18.217Z,15.30
2019-01-21T05:44:13.510Z,13.53
2019-01-21T05:47:22.819Z,14.63
2019-01-21T05:50:34.776Z,15.03
2019-01-21T05:53:48.279Z,15.27
2019-01-21T05:56:44.483Z,15.97
2019-01-21T06:00:04.085Z,15.23
2019-01-21T06:03:11.929Z,17.33
2019-01-21T06:06:08.098Z,19.80
2019-01-21T06:09:14.058Z,19.23
2019-01-21T06:12:12.193Z,18.27
2019-01-21T06:15:34.456Z,17.47
2019-01-21T06:18:57.382Z,18.43
2019-01-21T06:21:59.186Z,16.57
2019-01-21T06:25:04.005Z,16.33
2019-01-21T06:28:23.162Z,15.90
2019-01-21T06:31:38.054Z,15.97
2019-01-21T06:34:41.123Z,16.57
2019-01-21T06:37:54.231Z,15.63
2019-01-21T06:40:56.327Z,17.47
2019-01-21T06:44:01.003Z,16.07
2019-01-21T06:47:22.235Z,16.10
2019-01-21T06:50:30.207Z,16.77
2019-01-21T06:53:36.476Z,15.57
2019-01-21T06:56:54.881Z,15.30
2019-01-21T07:00:11.181Z,15.93
2019-01-21T07:03:13.766Z,14.33
2019-01-21T07:06:08.566Z,13.93
2019-01-21T07:09:23.616Z,14.13
2019-01-21T07:12:29.078Z,13.07
2019-01-21T07:15:33.384Z,16.87
2019-01-21T07:18:27.762Z,16.10
2019-01-21T07:21:22.053Z,15.07
2019-01-21T07:24:50.235Z,16.90
2019-01-21T07:27:58.776Z,12.63
2019-01-21T07:31:11.913Z,13.30
2019-01-21T07:33:59.383Z,13.30
2019-01-21T07:37:34.530Z,12.53
2019-01-21T07:40:43.514Z,14.50
2019-01-21T07:43:37.549Z,13.10
2019-01-21T07:46:58.487Z,12.30
2019-01-21T07:50:58.067Z,13.07
2019-01-21T07:54:07.350Z,11.00
2019-01-21T07:57:16.367Z,10.57
2019-01-21T08:00:26.863Z,11.37
2019-01-21T08:03:44.626Z,12.23
2019-01-21T08:07:13.085Z,11.53
2019-01-21T08:10:34.307Z,11.63
2019-01-21T08:13:52.480Z,11.23
2019-01-21T08:16:48.761Z,9.67
2019-01-21T08:19:26.679Z,11.63
2019-01-21T08:22:40.211Z,11.27
2019-01-21T08:25:52.828Z,10.80
2019-01-21T08:28:39.526Z,9.80
2019-01-21T08:31:23.728Z,11.03
2019-01-21T08:34:46.986Z,10.70
2019-01-21T08:37:39.513Z,10.93
2019-01-21T08:41:11.176Z,15.00
2019-01-21T08:44:13.331Z,11.83
2019-01-21T08:46:56.085Z,11.50
2019-01-21T08:50:12.667Z,11.87
2019-01-21T08:53:16.134Z,11.50
2019-01-21T08:56:21.798Z,11.20
2019-01-21T08:59:34.877Z,13.13
2019-01-21T09:02:54.474Z,13.20
2019-01-21T09:05:52.343Z,12.43
2019-01-21T09:09:00.114Z,12.33
2019-01-21T09:12:01.336Z,12.73
2019-01-21T09:15:07.244Z,15.10
2019-01-21T09:18:23.494Z,15.33
2019-01-21T09:21:29.491Z,14.40
2019-01-21T09:24:32.108Z,13.90
2019-01-21T09:27:31.671Z,13.33
2019-01-21T09:30:37.698Z,14.57
2019-01-21T09:33:49.720Z,15.13
2019-01-21T09:36:51.197Z,15.60
2019-01-21T09:40:04.655Z,15.17
2019-01-21T09:43:23.292Z,14.17
2019-01-21T09:46:02.587Z,15.67
2019-01-21T09:48:30.279Z,15.97
2019-01-21T09:51:04.651Z,15.23
2019-01-21T09:53:35.206Z,15.17
2019-01-21T09:56:04.958Z,15.67
2019-01-21T09:58:35.132Z,15.73
2019-01-21T10:01:04.717Z,15.37
2019-01-21T10:03:35.341Z,16.17
2019-01-21T10:06:09.410Z,15.33
2019-01-21T10:08:53.938Z,15.43
2019-01-21T10:12:08.224Z,16.30
2019-01-21T10:15:09.863Z,16.00
2019-01-21T10:18:02.815Z,16.67
2019-01-21T10:21:07.576Z,17.10
2019-01-21T10:24:26.913Z,16.57
2019-01-21T10:27:40.429Z,16.03
2019-01-21T10:30:22.925Z,17.50
2019-01-21T10:33:43.691Z,17.20
2019-01-21T10:36:59.839Z,17.10
2019-01-21T10:40:31.117Z,17.47
2019-01-21T10:43:44.219Z,17.60
2019-01-21T10:46:43.137Z,17.20
2019-01-21T10:49:38.429Z,17.57
2019-01-21T10:52:36.565Z,18.33
2019-01-21T10:55:46.789Z,17.43
2019-01-21T10:58:51.071Z,18.77
2019-01-21T11:01:43.332Z,19.13
2019-01-21T11:04:31.044Z,18.60
2019-01-21T11:07:37.402Z,18.33
2019-01-21T11:10:51.091Z,18.50
2019-01-21T11:13:48.905Z,21.27
2019-01-21T11:16:35.008Z,21.83
2019-01-21T11:19:48.856Z,16.77
2019-01-21T11:22:28.009Z,17.33
2019-01-21T11:25:37.382Z,20.73
2019-01-21T11:28:36.331Z,20.13
2019-01-21T11:31:55.576Z,18.53
2019-01-21T11:35:05.238Z,19.40
2019-01-21T11:38:30.442Z,19.90
2019-01-21T11:41:30.873Z,19.17
2019-01-21T11:44:35.384Z,19.47
2019-01-21T11:47:43.510Z,19.03
2019-01-21T11:51:03.408Z,19.83
2019-01-21T11:54:28.780Z,19.20
2019-01-21T11:57:13.796Z,21.00
2019-01-21T11:59:56.951Z,19.40
2019-01-21T12:02:57.292Z,20.17
2019-01-21T12:06:19.611Z,19.43
2019-01-21T12:09:18.840Z,20.10
2019-01-21T12:12:04.810Z,19.83
2019-01-21T12:15:27.759Z,20.70
2019-01-21T12:18:22.622Z,21.30
2019-01-21T12:21:16.417Z,21.00
2019-01-21T12:24:26.988Z,20.73
2019-01-21T12:27:22.378Z,18.93
2019-01-21T12:30:20.623Z,18.47
2019-01-21T12:33:20.347Z,18.23
2019-01-21T12:36:11.868Z,18.80
2019-01-21T12:39:12.301Z,19.80
2019-01-21T12:42:21.124Z,19.57
2019-01-21T12:45:04.905Z,20.80
2019-01-21T12:48:10.780Z,19.87
2019-01-21T12:51:27.064Z,18.43
2019-01-21T12:54:35.189Z,21.37
2019-01-21T12:58:09.697Z,20.67
2019-01-21T13:01:26.057Z,19.50
2019-01-21T13:04:10.415Z,19.97
2019-01-21T13:07:02.033Z,22.00
2019-01-21T13:09:52.531Z,20.73
2019-01-21T13:13:04.584Z,18.73
2019-01-21T13:16:17.767Z,21.53
2019-01-21T13:19:52.306Z,20.30
2019-01-21T13:22:58.099Z,24.13
2019-01-21T13:26:03.418Z,22.43
2019-01-21T13:28:47.059Z,21.73
2019-01-21T13:32:04.485Z,19.53
2019-01-21T13:35:19.446Z,22.93
2019-01-21T13:38:31.484Z,21.87
2019-01-21T13:41:37.577Z,19.40
2019-01-21T13:44:51.256Z,21.53
2019-01-21T13:48:07.536Z,20.13
2019-01-21T13:51:29.576Z,21.07
2019-01-21T13:54:32.460Z,22.10
2019-01-21T13:57:45.381Z,21.60
2019-01-21T14:00:28.396Z,22.03
2019-01-21T14:03:34.328Z,24.27
2019-01-21T14:06:51.386Z,22.53
2019-01-21T14:09:48.773Z,21.40
2019-01-21T14:12:43.758Z,21.10
2019-01-21T14:15:58.595Z,21.93
2019-01-21T14:18:39.618Z,22.43
2019-01-21T14:21:39.886Z,23.17
2019-01-21T14:24:33.112Z,23.10
2019-01-21T14:27:46.183Z,22.83
2019-01-21T14:31:10.592Z,22.03
2019-01-21T14:34:16.213Z,20.70
2019-01-21T14:37:23.945Z,22.30
2019-01-21T14:40:26.724Z,22.70
2019-01-21T14:43:17.866Z,22.40
2019-01-21T14:46:02.432Z,21.90
2019-01-21T14:49:08.681Z,21.37
2019-01-21T14:52:11.648Z,23.00
2019-01-21T14:55:27.630Z,21.87
2019-01-21T14:58:19.940Z,21.97
2019-01-21T15:01:03.866Z,23.93
2019-01-21T15:04:32.095Z,23.93
2019-01-21T15:07:32.621Z,23.53
2019-01-21T15:10:46.851Z,22.03
2019-01-21T15:14:00.072Z,22.97
2019-01-21T15:17:19.207Z,23.57
2019-01-21T15:20:11.750Z,23.87
2019-01-21T15:23:27.826Z,23.10
2019-01-21T15:26:31.895Z,23.20
2019-01-21T15:29:26.093Z,24.07
2019-01-21T15:32:48.849Z,24.03
2019-01-21T15:35:38.388Z,22.70
2019-01-21T15:38:35.387Z,21.97
2019-01-21T15:41:55.277Z,22.17
2019-01-21T15:44:50.136Z,23.43
2019-01-21T15:47:41.603Z,23.17
2019-01-21T15:50:39.504Z,24.13
2019-01-21T15:53:30.855Z,23.73
2019-01-21T15:56:24.080Z,26.47
2019-01-21T15:59:36.324Z,24.07
2019-01-21T16:02:34.399Z,27.23
2019-01-21T16:05:39.720Z,27.13
2019-01-21T16:08:26.785Z,25.87
2019-01-21T16:11:19.570Z,24.37
2019-01-21T16:14:08.202Z,26.77
2019-01-21T16:17:10.583Z,24.40
2019-01-21T16:20:06.620Z,26.33
2019-01-21T16:23:15.036Z,26.07
2019-01-21T16:25:58.806Z,26.07
2019-01-21T16:29:11.214Z,24.93
2019-01-21T16:32:10.485Z,26.13
2019-01-21T16:35:22.808Z,27.33
2019-01-21T16:38:13.459Z,28.90
2019-01-21T16:41:38.022Z,29.33
2019-01-21T16:44:07.354Z,29.37
2019-01-21T16:46:36.752Z,28.73
2019-01-21T16:49:06.112Z,27.53
2019-01-21T16:51:35.490Z,25.90
2019-01-21T16:54:05.176Z,27.63
2019-01-21T16:56:34.498Z,26.33
2019-01-21T16:59:03.995Z,29.40
2019-01-21T17:01:33.351Z,30.87
2019-01-21T17:04:02.700Z,32.80
2019-01-21T17:06:32.185Z,31.37
2019-01-21T17:09:01.622Z,29.47
2019-01-21T17:11:30.983Z,28.67
2019-01-21T17:14:00.362Z,29.10
2019-01-21T17:16:29.749Z,32.93
2019-01-21T17:18:59.108Z,32.57
2019-01-21T17:21:28.562Z,30.83
2019-01-21T17:23:57.968Z,30.73
2019-01-21T17:26:28.431Z,36.43
2019-01-21T17:28:57.918Z,41.17
2019-01-21T17:31:27.377Z,42.90
2019-01-21T17:33:56.790Z,37.17
2019-01-21T17:36:26.162Z,35.93
2019-01-21T17:38:55.596Z,37.77
2019-01-21T17:41:25.034Z,42.63
2019-01-21T17:43:54.414Z,42.07
2019-01-21T17:46:23.785Z,40.33
2019-01-21T17:48:53.266Z,44.17
2019-01-21T17:51:22.606Z,39.17
2019-01-21T17:53:53.478Z,35.17
2019-01-21T17:56:22.949Z,32.53
2019-01-21T17:58:52.324Z,29.37
2019-01-21T18:01:21.712Z,28.60
2019-01-21T18:03:51.157Z,29.87
2019-01-21T18:06:20.526Z,29.33
2019-01-21T18:08:49.863Z,29.17
2019-01-21T18:11:19.321Z,26.33
2019-01-21T18:13:48.697Z,29.20
2019-01-21T18:16:18.096Z,27.70
2019-01-21T18:18:47.585Z,26.90
2019-01-21T18:21:16.916Z,26.70
2019-01-21T18:23:46.283Z,29.07
2019-01-21T18:26:15.667Z,31.23
2019-01-21T18:28:45.169Z,28.40
2019-01-21T18:31:14.557Z,29.20
2019-01-21T18:33:43.996Z,27.07
2019-01-21T18:36:13.372Z,30.63
2019-01-21T18:38:42.766Z,30.90
2019-01-21T18:41:12.206Z,33.37
2019-01-21T18:43:41.605Z,34.10
2019-01-21T18:46:10.922Z,36.17
2019-01-21T18:48:41.247Z,35.93
2019-01-21T18:51:10.641Z,34.83
2019-01-21T18:53:40.060Z,33.53
2019-01-21T18:56:09.466Z,32.17
2019-01-21T18:58:38.971Z,31.50
2019-01-21T19:01:08.399Z,37.53
2019-01-21T19:03:38.649Z,32.07
2019-01-21T19:06:08.034Z,30.83
2019-01-21T19:08:37.397Z,28.07
2019-01-21T19:11:06.858Z,29.77
2019-01-21T19:13:36.261Z,30.27
2019-01-21T19:16:05.708Z,31.30
2019-01-21T19:18:35.128Z,28.80
2019-01-21T19:21:04.553Z,29.53
2019-01-21T19:23:33.909Z,29.37
2019-01-21T19:26:03.553Z,30.93
2019-01-21T19:28:32.893Z,30.27
2019-01-21T19:31:02.319Z,30.57
2019-01-21T19:33:31.678Z,29.10
2019-01-21T19:36:03.113Z,33.53
2019-01-21T19:38:32.501Z,31.17
2019-01-21T19:41:01.953Z,28.17
2019-01-21T19:43:31.448Z,28.73
2019-01-21T19:46:00.840Z,31.07
2019-01-21T19:48:30.188Z,29.63
2019-01-21T19:50:59.634Z,32.07
2019-01-21T19:53:29.007Z,31.97
2019-01-21T19:55:58.462Z,37.90
2019-01-21T19:58:27.898Z,35.73
2019-01-21T20:00:57.408Z,36.73
2019-01-21T20:03:27.197Z,39.00
2019-01-21T20:05:56.677Z,37.07
2019-01-21T20:08:26.457Z,36.53
2019-01-21T20:10:56.281Z,35.77
2019-01-21T20:13:26.223Z,35.00
2019-01-21T20:15:55.760Z,35.73
2019-01-21T20:18:25.129Z,37.47
2019-01-21T20:20:54.505Z,35.70
2019-01-21T20:23:24.076Z,33.87
2019-01-21T20:25:53.613Z,34.87
2019-01-21T20:28:23.163Z,35.50
2019-01-21T20:30:52.581Z,32.13
2019-01-21T20:33:22.117Z,32.97
2019-01-21T20:35:51.501Z,30.17
2019-01-21T20:38:20.997Z,28.13
2019-01-21T20:40:50.425Z,26.93
2019-01-21T20:43:20.549Z,27.83
2019-01-21T20:45:50.174Z,27.80
2019-01-21T20:48:19.735Z,27.50
2019-01-21T20:50:49.226Z,27.53
2019-01-21T20:53:18.666Z,28.23
2019-01-21T20:55:48.087Z,26.57
2019-01-21T20:58:17.564Z,26.73
2019-01-21T21:00:46.942Z,27.50
2019-01-21T21:03:16.558Z,28.17
2019-01-21T21:05:45.917Z,26.13
2019-01-21T21:08:15.430Z,27.23
2019-01-21T21:10:44.783Z,29.17
2019-01-21T21:13:15.441Z,25.53
2019-01-21T21:15:45.973Z,28.83
2019-01-21T21:18:15.351Z,27.33
2019-01-21T21:20:45.857Z,25.57
2019-01-21T21:23:15.276Z,25.17
2019-01-21T21:25:44.721Z,28.73
2019-01-21T21:28:14.144Z,28.30
2019-01-21T21:30:43.567Z,28.87
2019-01-21T21:33:12.896Z,26.93
2019-01-21T21:35:42.436Z,26.53
2019-01-21T21:38:11.835Z,29.33
2019-01-21T21:40:41.301Z,25.57
2019-01-21T21:43:11.205Z,24.03
2019-01-21T21:45:40.613Z,24.50
2019-01-21T21:48:09.889Z,25.93
2019-01-21T21:50:39.442Z,25.83
2019-01-21T21:53:08.740Z,26.67
2019-01-21T21:55:38.108Z,28.07
2019-01-21T21:58:07.779Z,26.60
2019-01-21T22:00:37.751Z,25.33
2019-01-21T22:03:07.135Z,25.70
2019-01-21T22:05:36.535Z,26.33
2019-01-21T22:08:06.278Z,26.67
2019-01-21T22:10:36.035Z,29.00
2019-01-21T22:13:05.299Z,25.80
2019-01-21T22:15:34.765Z,27.67
2019-01-21T22:18:04.141Z,28.17
2019-01-21T22:20:33.687Z,26.17
2019-01-21T22:23:03.427Z,27.50
2019-01-21T22:25:32.963Z,25.93
2019-01-21T22:28:02.404Z,28.50
2019-01-21T22:30:31.832Z,29.00
2019-01-21T22:33:01.403Z,26.53
2019-01-21T22:35:32.307Z,27.87
2019-01-21T22:38:01.709Z,26.07
2019-01-21T22:40:31.081Z,26.70
2019-01-21T22:43:00.631Z,26.93
2019-01-21T22:45:30.017Z,27.13
2019-01-21T22:47:59.838Z,28.70
2019-01-21T22:50:29.234Z,29.37
2019-01-21T22:52:58.671Z,25.33
2019-01-21T22:55:28.136Z,26.30
2019-01-21T22:57:57.553Z,26.30
2019-01-21T23:00:40.466Z,27.03
2019-01-21T23:03:10.361Z,27.53
2019-01-21T23:05:39.818Z,26.47
2019-01-21T23:08:09.306Z,28.27
2019-01-21T23:10:38.988Z,25.90
2019-01-21T23:13:08.364Z,26.37
2019-01-21T23:15:37.913Z,25.30
2019-01-21T23:18:07.846Z,25.20
2019-01-21T23:20:37.280Z,26.30
2019-01-21T23:23:07.070Z,26.47
2019-01-21T23:25:36.430Z,26.93
2019-01-21T23:28:06.163Z,26.47
2019-01-21T23:30:35.565Z,24.47
2019-01-21T23:33:05.152Z,23.87
2019-01-21T23:35:34.916Z,24.37
2019-01-21T23:38:04.465Z,26.87
2019-01-21T23:40:33.867Z,27.17
2019-01-21T23:43:03.291Z,24.27
2019-01-21T23:45:32.717Z,24.73
2019-01-21T23:48:02.184Z,23.83
2019-01-21T23:50:31.609Z,25.77
2019-01-21T23:53:00.985Z,24.27
2019-01-21T23:55:30.357Z,24.13
2019-01-21T23:57:59.821Z,25.10
